Time;durP1;ratioP1;P1;durP2;ratioP2;P2;SDS_P1;SDS_P2;PMS_P1;PMS_P2;Temp;Humidity;BMP_temperature;BMP_pressure;BME280_temperature;BME280_humidity;BME280_pressure;Samples;Min_cycle;Max_cycle;Signal;HPM_P1;HPM_P2
2021/09/22 00:02:27;;;;;;;8.18;4.20;;;;;;;9.72;61.06;101250.47;10396152;28;20045;-64
2021/09/22 00:07:30;;;;;;;7.35;4.25;;;;;;;9.73;61.11;101247.78;10395544;28;20072;-64
2021/09/22 00:12:32;;;;;;;6.55;4.03;;;;;;;9.65;61.07;101245.44;10395502;28;20519;-64
2021/09/22 00:17:33;;;;;;;6.75;3.95;;;;;;;9.59;61.04;101244.78;10395896;28;20524;-64
2021/09/22 00:22:35;;;;;;;6.80;4.55;;;;;;;9.54;61.26;101246.72;10395640;28;20053;-64
2021/09/22 00:27:37;;;;;;;6.43;4.50;;;;;;;9.52;61.12;101248.53;10394969;28;20056;-64
2021/09/22 00:32:40;;;;;;;6.95;4.20;;;;;;;9.45;61.22;101249.63;10395204;28;20466;-64
2021/09/22 00:37:42;;;;;;;8.60;4.93;;;;;;;9.43;61.40;101246.22;10393348;28;20053;-64
2021/09/22 00:42:43;;;;;;;5.22;4.20;;;;;;;9.38;61.25;101253.38;10395009;28;20305;-64
2021/09/22 00:47:45;;;;;;;10.40;4.45;;;;;;;9.30;61.31;101258.81;10394235;28;20429;-64
2021/09/22 00:52:47;;;;;;;7.88;4.40;;;;;;;9.22;61.37;101265.22;10394452;28;20054;-64
2021/09/22 00:57:51;;;;;;;6.93;4.68;;;;;;;9.23;61.31;101266.91;10393778;28;20504;-64
2021/09/22 01:02:53;;;;;;;6.57;4.53;;;;;;;9.22;61.33;101265.22;10393737;28;20486;-64
2021/09/22 01:07:55;;;;;;;7.00;4.47;;;;;;;9.12;61.50;101262.03;10393455;28;20438;-64
2021/09/22 01:12:57;;;;;;;6.18;4.45;;;;;;;9.14;61.76;101270.69;10393359;28;20054;-64
2021/09/22 01:18:00;;;;;;;6.18;4.47;;;;;;;9.13;61.62;101271.59;10393359;28;20136;-64
2021/09/22 01:23:04;;;;;;;7.03;5.20;;;;;;;9.04;61.29;101273.63;10393326;28;20136;-64
2021/09/22 01:28:06;;;;;;;9.90;4.50;;;;;;;8.88;61.84;101257.63;10392122;28;20092;-64
2021/09/22 01:33:10;;;;;;;6.68;4.68;;;;;;;8.90;61.78;101253.22;10392981;28;20136;-64
2021/09/22 01:38:17;;;;;;;8.35;4.80;;;;;;;8.89;61.94;101251.53;10392926;28;20088;-64
2021/09/22 01:43:19;;;;;;;7.72;4.85;;;;;;;8.87;61.76;101250.72;10392582;28;20058;-64
2021/09/22 01:48:21;;;;;;;7.00;5.05;;;;;;;8.84;61.78;101254.25;10393025;28;20053;-64
2021/09/22 01:53:23;;;;;;;28.42;5.68;;;;;;;8.76;62.09;101248.44;10392606;28;20068;-64
2021/09/22 01:58:26;;;;;;;8.80;5.05;;;;;;;8.76;62.09;101239.75;10392563;28;20054;-64
2021/09/22 02:03:28;;;;;;;7.95;5.25;;;;;;;8.70;62.19;101240.81;10392507;28;20072;-64
2021/09/22 02:08:31;;;;;;;7.75;5.00;;;;;;;8.65;62.27;101236.63;10392178;28;20053;-64
2021/09/22 02:13:34;;;;;;;8.18;4.70;;;;;;;8.61;62.16;101230.66;10391028;28;20137;-64
2021/09/22 02:18:36;;;;;;;8.40;4.57;;;;;;;8.58;62.00;101229.91;10392277;28;20049;-64
2021/09/22 02:23:39;;;;;;;9.40;5.13;;;;;;;8.53;62.15;101221.34;10392267;28;20050;-64
2021/09/22 02:28:41;;;;;;;9.60;4.90;;;;;;;8.55;62.03;101222.16;10392317;28;20069;-64
2021/09/22 02:33:42;;;;;;;7.05;4.55;;;;;;;8.50;62.20;101222.31;10391620;28;20553;-64
2021/09/22 02:38:44;;;;;;;8.68;5.15;;;;;;;8.47;62.22;101226.75;10396640;28;20064;-64
2021/09/22 02:43:46;;;;;;;8.02;4.72;;;;;;;8.44;62.17;101226.88;10399470;28;20520;-64
2021/09/22 02:48:47;;;;;;;7.05;4.90;;;;;;;8.40;62.30;101218.28;10398704;28;20716;-64
2021/09/22 02:53:49;;;;;;;7.72;4.88;;;;;;;8.39;62.03;101228.75;10398342;28;20109;-64
2021/09/22 02:58:51;;;;;;;7.97;4.72;;;;;;;8.32;62.45;101222.03;10398742;28;20236;-64
2021/09/22 03:03:52;;;;;;;5.38;4.45;;;;;;;8.29;62.36;101222.97;10398500;28;20413;-64
2021/09/22 03:08:54;;;;;;;6.50;4.85;;;;;;;8.28;62.16;101217.81;10398018;28;20099;-64
2021/09/22 03:13:56;;;;;;;8.07;4.65;;;;;;;8.24;62.36;101221.41;10398056;28;20405;-65
2021/09/22 03:18:59;;;;;;;9.35;5.35;;;;;;;8.23;62.38;101217.94;10398053;28;20061;-64
2021/09/22 03:24:01;;;;;;;7.53;5.30;;;;;;;8.22;62.41;101223.19;10397852;28;20053;-64
2021/09/22 03:29:03;;;;;;;6.68;5.10;;;;;;;8.20;62.25;101225.81;10397453;28;20063;-64
2021/09/22 03:34:04;;;;;;;16.50;4.47;;;;;;;8.18;62.40;101234.63;10397518;28;20127;-64
2021/09/22 03:39:06;;;;;;;30.90;5.65;;;;;;;8.14;62.68;101238.22;10397149;28;20832;-64
2021/09/22 03:44:08;;;;;;;11.02;4.90;;;;;;;8.09;62.56;101235.69;10396933;28;20128;-64
2021/09/22 03:49:10;;;;;;;13.02;5.43;;;;;;;8.06;62.60;101232.34;10395979;28;20061;-64
2021/09/22 03:54:12;;;;;;;6.60;4.70;;;;;;;8.02;62.66;101240.22;10395738;28;20041;-64
2021/09/22 03:59:14;;;;;;;9.77;5.57;;;;;;;8.02;62.65;101235.00;10396586;28;20139;-64
2021/09/22 04:04:16;;;;;;;10.18;5.50;;;;;;;7.99;62.60;101248.13;10396191;28;20318;-64
2021/09/22 04:09:18;;;;;;;6.50;5.28;;;;;;;7.95;62.57;101248.25;10395332;28;20054;-64
2021/09/22 04:14:20;;;;;;;8.70;5.10;;;;;;;7.93;62.58;101261.34;10396225;28;20083;-63
2021/09/22 04:19:22;;;;;;;6.70;4.93;;;;;;;7.91;62.71;101257.06;10395441;28;20143;-64
2021/09/22 04:24:24;;;;;;;11.55;5.63;;;;;;;7.91;62.93;101246.63;10401702;28;20056;-64
2021/09/22 04:29:25;;;;;;;20.75;5.53;;;;;;;7.93;62.62;101258.72;10429249;28;20061;-64
2021/09/22 04:34:27;;;;;;;26.42;5.72;;;;;;;7.92;62.73;101253.53;10394867;28;20898;-64
2021/09/22 04:39:29;;;;;;;16.08;5.80;;;;;;;7.88;63.00;101242.34;10395066;28;20053;-64
2021/09/22 04:44:30;;;;;;;16.20;5.32;;;;;;;7.87;62.70;101242.41;10394484;28;20053;-64
2021/09/22 04:49:32;;;;;;;8.70;4.95;;;;;;;7.84;62.75;101238.13;10394146;28;20057;-64
2021/09/22 04:54:34;;;;;;;68.38;6.88;;;;;;;7.86;62.81;101235.47;10393792;28;20549;-64
2021/09/22 04:59:35;;;;;;;8.85;5.63;;;;;;;7.86;62.89;101225.94;10393788;28;20054;-64
2021/09/22 05:04:37;;;;;;;62.97;6.25;;;;;;;7.87;62.73;101232.84;10394266;28;20063;-65
2021/09/22 05:09:39;;;;;;;17.35;4.60;;;;;;;7.85;62.87;101237.22;10393664;28;20405;-65
2021/09/22 05:14:40;;;;;;;15.68;4.65;;;;;;;7.82;62.96;101249.47;10393170;28;20050;-65
2021/09/22 05:19:42;;;;;;;12.25;4.55;;;;;;;7.81;62.68;101255.59;10393905;28;20062;-65
2021/09/22 05:24:44;;;;;;;7.35;4.22;;;;;;;7.80;62.63;101257.34;10393459;28;20207;-65
2021/09/22 05:29:46;;;;;;;18.65;4.57;;;;;;;7.83;62.73;101259.84;10393255;28;20075;-65
2021/09/22 05:34:48;;;;;;;18.58;4.93;;;;;;;7.88;62.55;101270.16;10393137;28;20403;-64
2021/09/22 05:39:49;;;;;;;22.75;4.55;;;;;;;7.89;62.68;101266.66;10393052;28;20045;-64
2021/09/22 05:44:51;;;;;;;85.00;6.45;;;;;;;7.95;62.63;101269.09;10391504;28;20057;-64
2021/09/22 05:49:53;;;;;;;79.60;5.72;;;;;;;7.99;62.75;101270.72;10391673;28;20054;-65
2021/09/22 05:54:55;;;;;;;53.53;5.13;;;;;;;8.12;62.64;101263.44;10392714;28;20579;-65
2021/09/22 05:59:57;;;;;;;118.18;6.68;;;;;;;8.21;62.37;101269.25;10391171;28;20054;-64
2021/09/22 06:04:58;;;;;;;72.63;5.63;;;;;;;8.31;62.17;101262.00;10392491;28;20053;-64
2021/09/22 06:10:00;;;;;;;50.90;5.18;;;;;;;8.36;61.89;101266.22;10392192;28;20422;-64
2021/09/22 06:15:02;;;;;;;82.85;6.15;;;;;;;8.35;62.02;101274.91;10398980;28;20509;-64
2021/09/22 06:20:05;;;;;;;16.20;4.53;;;;;;;8.64;61.70;101281.88;10400721;28;20316;-64
2021/09/22 06:25:07;;;;;;;28.50;4.43;;;;;;;8.79;61.42;101269.19;10400117;28;20560;-64
2021/09/22 06:30:10;;;;;;;17.27;3.78;;;;;;;8.98;60.61;101272.09;10400325;28;20312;-64
2021/09/22 06:35:13;;;;;;;8.32;4.40;;;;;;;9.08;60.61;101280.47;10399477;28;20053;-64
2021/09/22 06:40:18;;;;;;;56.38;5.38;;;;;;;9.30;59.64;101289.31;10399853;28;20061;-64
2021/09/22 06:45:20;;;;;;;6.13;3.80;;;;;;;9.25;59.76;101297.28;10419183;28;20078;-64
2021/09/22 06:50:22;;;;;;;81.97;5.43;;;;;;;9.18;60.00;101300.16;10440621;28;20074;-64
2021/09/22 06:55:24;;;;;;;10.80;4.35;;;;;;;9.32;60.00;101296.19;10398422;28;20439;-64
2021/09/22 07:00:26;;;;;;;4.55;3.80;;;;;;;9.57;59.58;101294.47;10398778;28;20063;-64
2021/09/22 07:05:28;;;;;;;7.40;3.90;;;;;;;10.09;58.59;101295.28;10398323;28;20843;-64
2021/09/22 07:10:31;;;;;;;6.35;4.85;;;;;;;10.17;58.09;101303.69;10398210;28;20502;-64
2021/09/22 07:15:33;;;;;;;5.47;4.00;;;;;;;10.22;58.00;101307.00;10398050;28;20081;-64
2021/09/22 07:20:49;;;;;;;6.72;4.40;;;;;;;10.31;57.83;101311.91;10397972;28;20139;-64
2021/09/22 07:25:50;;;;;;;6.85;4.30;;;;;;;10.36;58.06;101302.09;10396332;28;20053;-64
2021/09/22 07:30:52;;;;;;;8.18;4.63;;;;;;;10.59;57.66;101309.94;10397800;28;20315;-64
2021/09/22 07:35:54;;;;;;;6.45;4.63;;;;;;;10.66;57.42;101307.97;10396568;28;20049;-64
2021/09/22 07:40:57;;;;;;;6.53;4.70;;;;;;;10.87;56.99;101309.72;10396711;28;20064;-64
2021/09/22 07:46:00;;;;;;;6.88;4.82;;;;;;;11.24;56.81;101296.91;10396768;28;20136;-64
2021/09/22 07:51:03;;;;;;;7.63;5.07;;;;;;;11.72;55.75;101296.66;10397001;28;20119;-64
2021/09/22 07:56:05;;;;;;;7.43;5.20;;;;;;;12.09;55.28;101294.97;10396771;28;20584;-64
2021/09/22 08:01:07;;;;;;;6.60;5.40;;;;;;;12.35;54.68;101293.84;10396348;28;20155;-64
2021/09/22 08:06:09;;;;;;;6.90;5.35;;;;;;;13.08;53.28;101290.38;10396162;28;20061;-64
2021/09/22 08:11:11;;;;;;;8.43;5.88;;;;;;;13.36;52.55;101295.97;10395864;28;20418;-64
2021/09/22 08:16:13;;;;;;;10.13;6.18;;;;;;;13.56;52.23;101294.09;10395796;28;20056;-64
2021/09/22 08:21:15;;;;;;;11.07;6.75;;;;;;;13.78;51.86;101289.44;10395372;28;20057;-64
2021/09/22 08:26:17;;;;;;;8.18;6.28;;;;;;;14.16;51.16;101297.97;10395372;28;20068;-64
2021/09/22 08:31:19;;;;;;;10.25;6.55;;;;;;;14.27;50.95;101289.47;10395289;28;20061;-64
2021/09/22 08:36:21;;;;;;;10.73;7.03;;;;;;;13.88;51.63;101288.97;10395707;28;20053;-63
2021/09/22 08:41:23;;;;;;;7.95;6.00;;;;;;;14.47;51.06;101289.28;10394543;28;20050;-64
2021/09/22 08:46:25;;;;;;;11.48;6.68;;;;;;;14.79;50.60;101284.91;10393229;28;20053;-64
2021/09/22 08:51:27;;;;;;;9.20;6.22;;;;;;;14.84;50.51;101267.88;10394414;28;20057;-64
2021/09/22 08:56:28;;;;;;;9.85;6.45;;;;;;;14.94;50.68;101266.44;10394129;28;20535;-64
2021/09/22 09:01:30;;;;;;;8.52;6.25;;;;;;;15.14;50.08;101255.59;10394510;28;20156;-64
2021/09/22 09:06:37;;;;;;;11.20;6.90;;;;;;;15.26;49.00;101252.28;10393606;28;20053;-64
2021/09/22 09:11:42;;;;;;;13.20;8.35;;;;;;;14.93;48.62;101242.81;10393284;28;20593;-64
2021/09/22 09:16:48;;;;;;;11.35;8.10;;;;;;;14.84;49.36;101249.44;10393457;28;20063;-64
2021/09/22 09:22:09;;;;;;;11.55;8.07;;;;;;;15.14;48.50;101247.69;10392100;28;20049;-64
2021/09/22 09:27:20;;;;;;;10.55;7.65;;;;;;;15.27;48.25;101238.16;10393105;28;20144;-64
2021/09/22 09:32:25;;;;;;;10.60;8.00;;;;;;;15.27;48.24;101234.66;10393698;28;20580;-63
2021/09/22 09:37:32;;;;;;;8.77;7.22;;;;;;;15.58;48.23;101231.09;10393026;28;20524;-64
2021/09/22 09:42:40;;;;;;;10.85;7.45;;;;;;;15.65;47.32;101225.38;10392532;28;20140;-64
2021/09/22 09:47:41;;;;;;;8.95;6.93;;;;;;;15.78;48.05;101220.19;10392536;28;20057;-64
2021/09/22 09:52:54;;;;;;;10.75;6.95;;;;;;;16.24;47.69;101214.59;10392559;28;20621;-64
2021/09/22 09:57:56;;;;;;;12.35;6.88;;;;;;;16.36;47.94;101212.16;10391066;28;20498;-64
2021/09/22 10:03:13;;;;;;;10.95;7.13;;;;;;;16.41;47.35;101207.41;10392394;28;20133;-64
2021/09/22 10:08:17;;;;;;;10.93;7.40;;;;;;;16.80;46.99;101204.88;10392411;28;20062;-64
2021/09/22 10:13:19;;;;;;;10.70;7.50;;;;;;;16.77;46.03;101200.63;10392438;28;20049;-64
2021/09/22 10:18:21;;;;;;;11.68;7.80;;;;;;;16.80;46.53;101194.31;10390860;28;20509;-64
2021/09/22 10:23:24;;;;;;;11.52;7.97;;;;;;;17.03;46.07;101185.72;10392025;28;20060;-64
2021/09/22 10:28:41;;;;;;;13.88;8.27;;;;;;;17.22;44.81;101175.59;10390768;28;20053;-64
2021/09/22 10:33:45;;;;;;;11.80;7.53;;;;;;;17.42;45.18;101164.56;10391920;28;20053;-65
2021/09/22 10:38:48;;;;;;;13.60;7.38;;;;;;;17.65;45.51;101166.44;10391793;28;20077;-64
2021/09/22 10:43:50;;;;;;;11.27;7.07;;;;;;;17.77;45.43;101167.41;10392207;28;20096;-64
2021/09/22 10:48:54;;;;;;;11.85;7.50;;;;;;;17.63;45.66;101151.63;10391674;28;20067;-64
2021/09/22 10:54:23;;;;;;;13.60;8.90;;;;;;;17.58;45.18;101157.25;10391496;28;20058;-64
2021/09/22 10:59:29;;;;;;;10.82;8.00;;;;;;;17.80;45.23;101153.94;10394958;28;20053;-64
2021/09/22 11:04:58;;;;;;;13.30;9.68;;;;;;;17.93;44.85;101148.63;10398559;28;20059;-63
2021/09/22 11:10:39;;;;;;;14.25;9.70;;;;;;;17.76;43.79;101142.72;10398179;28;20443;-64
2021/09/22 11:15:40;;;;;;;14.15;9.57;;;;;;;17.83;44.89;101138.69;10398015;28;20530;-65
2021/09/22 11:20:55;;;;;;;19.23;13.20;;;;;;;17.87;43.68;101127.91;10398117;28;20049;-64
2021/09/22 11:26:07;;;;;;;18.35;10.63;;;;;;;18.11;43.97;101119.03;10397665;28;20054;-65
2021/09/22 11:31:09;;;;;;;15.35;10.95;;;;;;;18.25;43.35;101118.06;10397859;28;20058;-64
2021/09/22 11:36:13;;;;;;;10.82;6.32;;;;;;;18.36;43.00;101104.91;10397735;28;20058;-65
2021/09/22 11:41:19;;;;;;;12.23;7.57;;;;;;;18.43;42.75;101106.97;10397985;28;20064;-64
2021/09/22 11:46:21;;;;;;;11.18;7.78;;;;;;;18.38;42.75;101090.56;10414735;28;20140;-64
2021/09/22 11:51:23;;;;;;;13.15;6.93;;;;;;;18.30;43.20;101082.34;10436539;28;20060;-64
2021/09/22 11:56:27;;;;;;;11.07;6.80;;;;;;;18.41;43.58;101084.19;10437803;28;20145;-64
2021/09/22 12:01:28;;;;;;;11.50;6.65;;;;;;;18.60;43.22;101071.28;10437557;28;20049;-65
2021/09/22 12:06:31;;;;;;;10.98;6.00;;;;;;;18.89;42.62;101069.09;10436956;28;20056;-64
2021/09/22 12:11:35;;;;;;;9.43;6.28;;;;;;;18.87;42.62;101061.22;10436950;28;20152;-64
2021/09/22 12:16:37;;;;;;;9.60;5.93;;;;;;;18.97;42.45;101056.91;10437070;28;20148;-64
2021/09/22 12:21:39;;;;;;;9.00;5.88;;;;;;;19.06;42.28;101045.63;10410410;28;20057;-64
2021/09/22 12:26:51;;;;;;;11.27;6.43;;;;;;;19.16;41.01;101037.81;10395402;28;20525;-64
2021/09/22 12:31:53;;;;;;;8.82;4.88;;;;;;;19.31;41.73;101031.31;10395164;28;20768;-63
2021/09/22 12:36:58;;;;;;;9.43;5.03;;;;;;;19.44;40.25;101018.75;10394958;28;20586;-64
2021/09/22 12:42:08;;;;;;;6.60;4.30;;;;;;;19.34;40.23;101015.13;10392983;28;20156;-63
2021/09/22 12:47:15;;;;;;;6.18;3.40;;;;;;;19.32;38.88;101012.63;10394790;28;20056;-64
2021/09/22 12:52:21;;;;;;;5.70;2.42;;;;;;;19.24;38.85;101004.41;10394063;28;20057;-64
2021/09/22 12:57:23;;;;;;;8.00;3.30;;;;;;;19.12;40.02;100993.91;10394316;28;20053;-64
2021/09/22 13:02:26;;;;;;;8.15;3.95;;;;;;;19.31;39.25;100989.72;10394078;28;20049;-64
2021/09/22 13:07:29;;;;;;;7.90;3.38;;;;;;;19.16;39.01;100980.31;10393691;28;20112;-64
2021/09/22 13:12:32;;;;;;;5.47;2.40;;;;;;;19.45;38.50;100970.88;10393440;28;20063;-63
2021/09/22 13:17:34;;;;;;;5.22;2.03;;;;;;;19.67;38.25;100971.78;10393494;28;20075;-64
2021/09/22 13:22:35;;;;;;;5.18;1.90;;;;;;;19.48;38.35;100960.00;10391119;28;20057;-63
2021/09/22 13:27:37;;;;;;;4.57;1.90;;;;;;;19.63;38.41;100957.94;10392961;28;20062;-64
2021/09/22 13:32:39;;;;;;;4.65;1.88;;;;;;;19.84;38.24;100953.56;10393658;28;20104;-64
2021/09/22 13:37:40;;;;;;;3.75;1.70;;;;;;;19.83;38.19;100948.38;10393442;28;20057;-64
2021/09/22 13:42:42;;;;;;;5.32;1.70;;;;;;;20.03;37.72;100929.81;10392756;28;20053;-64
2021/09/22 13:47:45;;;;;;;4.30;1.58;;;;;;;19.97;37.66;100930.34;10392756;28;20093;-64
2021/09/22 13:52:46;;;;;;;4.18;1.60;;;;;;;20.16;37.36;100924.34;10392298;28;20057;-64
2021/09/22 13:57:48;;;;;;;4.30;1.88;;;;;;;20.26;36.93;100919.94;10375149;28;20146;-64
2021/09/22 14:02:50;;;;;;;4.05;1.40;;;;;;;20.16;37.19;100913.72;10391869;28;20382;-64
2021/09/22 14:07:52;;;;;;;5.30;1.70;;;;;;;20.24;37.15;100900.63;10391032;28;20416;-64
2021/09/22 14:12:59;;;;;;;4.75;1.70;;;;;;;20.44;38.69;100894.44;10392179;28;20597;-64
2021/09/22 14:18:03;;;;;;;4.07;1.55;;;;;;;20.54;37.48;100886.56;10392145;28;20060;-64
2021/09/22 14:23:06;;;;;;;6.65;2.17;;;;;;;20.40;37.04;100884.25;10392232;28;20061;-64
2021/09/22 14:28:09;;;;;;;6.22;1.60;;;;;;;20.54;36.59;100876.75;10391664;28;20061;-64
2021/09/22 14:33:11;;;;;;;5.97;1.60;;;;;;;20.51;37.13;100863.72;10431014;28;20083;-64
2021/09/22 14:38:13;;;;;;;4.03;1.45;;;;;;;20.61;37.13;100864.66;10440439;28;20497;-64
2021/09/22 14:43:15;;;;;;;5.15;1.83;;;;;;;20.58;36.48;100851.59;10440617;28;20065;-64
2021/09/22 14:48:17;;;;;;;4.10;1.88;;;;;;;20.63;37.62;100848.56;10399003;28;20429;-64
2021/09/22 14:53:19;;;;;;;4.35;1.50;;;;;;;20.66;37.72;100843.81;10399031;28;20482;-64
2021/09/22 14:58:21;;;;;;;4.30;1.63;;;;;;;20.66;36.97;100840.34;10398985;28;20064;-64
2021/09/22 15:03:23;;;;;;;5.65;1.70;;;;;;;20.66;36.74;100829.69;10399033;28;20114;-64
2021/09/22 15:08:25;;;;;;;4.72;1.70;;;;;;;20.65;37.25;100834.16;10397395;28;20628;-64
2021/09/22 15:13:28;;;;;;;7.55;1.77;;;;;;;20.53;37.45;100829.88;10398255;28;20127;-63
2021/09/22 15:18:30;;;;;;;3.35;1.50;;;;;;;20.53;37.13;100821.91;10398515;28;20460;-63
2021/09/22 15:23:31;;;;;;;3.35;1.70;;;;;;;20.44;38.57;100822.69;10397949;28;20521;-63
2021/09/22 15:28:33;;;;;;;4.43;1.48;;;;;;;20.44;37.99;100817.38;10397670;28;20061;-63
2021/09/22 15:33:35;;;;;;;5.28;1.40;;;;;;;20.49;38.18;100815.19;10397441;28;20064;-63
2021/09/22 15:38:37;;;;;;;4.38;1.52;;;;;;;20.47;38.24;100803.84;10397359;28;20108;-64
2021/09/22 15:43:39;;;;;;;4.00;1.40;;;;;;;20.34;37.94;100802.41;10396408;28;20572;-64
2021/09/22 15:48:41;;;;;;;5.25;1.40;;;;;;;20.21;38.76;100798.13;10395636;28;20060;-64
2021/09/22 15:53:44;;;;;;;3.88;1.70;;;;;;;20.13;40.72;100802.44;10407998;28;20918;-64
2021/09/22 15:58:45;;;;;;;3.50;1.65;;;;;;;20.00;39.58;100793.81;10437871;28;20053;-64
2021/09/22 16:03:47;;;;;;;2.92;1.52;;;;;;;19.82;40.22;100795.38;10437178;28;20150;-63
2021/09/22 16:08:52;;;;;;;3.40;1.60;;;;;;;19.60;41.99;100793.66;10437243;28;20103;-64
2021/09/22 16:13:55;;;;;;;2.30;1.60;;;;;;;19.35;41.96;100784.25;10436822;28;20057;-63
2021/09/22 16:18:57;;;;;;;7.63;2.28;;;;;;;19.19;43.24;100791.78;10436532;28;20044;-63
2021/09/22 16:23:59;;;;;;;4.75;2.45;;;;;;;18.98;44.47;100800.59;10436704;28;20143;-63
2021/09/22 16:29:01;;;;;;;3.92;2.10;;;;;;;18.73;45.67;100801.72;10432319;28;20045;-64
2021/09/22 16:34:03;;;;;;;3.58;1.92;;;;;;;18.54;46.40;100796.22;10395431;28;20135;-64
2021/09/22 16:39:05;;;;;;;4.22;1.70;;;;;;;18.34;47.03;100803.06;10395044;28;20053;-63
2021/09/22 16:44:07;;;;;;;2.92;1.70;;;;;;;18.03;47.67;100805.53;10395075;28;20434;-63
2021/09/22 16:49:09;;;;;;;2.20;1.50;;;;;;;17.83;47.83;100805.25;10394478;28;20103;-63
2021/09/22 16:54:11;;;;;;;3.47;1.70;;;;;;;17.63;48.30;100797.13;10394665;28;20077;-63
2021/09/22 16:59:12;;;;;;;2.83;1.60;;;;;;;17.41;49.22;100805.84;10394021;28;20053;-63
2021/09/22 17:04:14;;;;;;;4.55;1.67;;;;;;;17.13;49.75;100802.66;10393884;28;20119;-63
2021/09/22 17:09:36;;;;;;;3.92;1.75;;;;;;;16.82;50.43;100804.03;10398188;28;20575;-64
2021/09/22 17:14:37;;;;;;;5.28;2.00;;;;;;;16.56;51.19;100807.69;10434335;28;20063;-64
2021/09/22 17:19:39;;;;;;;5.88;1.73;;;;;;;16.29;51.83;100814.84;10416366;28;20783;-64
2021/09/22 17:24:41;;;;;;;4.20;1.80;;;;;;;16.10;52.27;100816.13;10434328;28;20092;-63
2021/09/22 17:29:43;;;;;;;3.40;1.95;;;;;;;15.92;53.00;100824.44;10424265;28;20089;-64
2021/09/22 17:34:45;;;;;;;3.95;1.92;;;;;;;15.70;54.05;100824.19;10391806;28;20057;-64
2021/09/22 17:39:47;;;;;;;4.60;1.98;;;;;;;15.50;54.55;100814.13;10392791;28;20092;-63
2021/09/22 17:44:49;;;;;;;5.95;2.17;;;;;;;15.33;54.76;100817.84;10392887;28;20080;-63
2021/09/22 17:49:51;;;;;;;4.57;2.08;;;;;;;15.16;55.00;100810.22;10392285;28;20053;-64
2021/09/22 17:54:53;;;;;;;4.65;2.40;;;;;;;15.03;55.63;100811.94;10392450;28;20049;-64
2021/09/22 17:59:55;;;;;;;5.82;2.50;;;;;;;14.89;56.35;100817.22;10392216;28;20121;-64
2021/09/22 18:04:58;;;;;;;4.63;2.80;;;;;;;14.72;56.65;100820.06;10392594;28;20065;-65
2021/09/22 18:09:59;;;;;;;6.90;2.50;;;;;;;14.61;57.09;100826.03;10397249;28;20127;-63
2021/09/22 18:15:02;;;;;;;5.60;2.50;;;;;;;14.47;57.38;100824.19;10400279;28;21110;-63
2021/09/22 18:20:08;;;;;;;3.70;2.20;;;;;;;14.37;57.63;100825.72;10400142;28;20065;-63
2021/09/22 18:25:10;;;;;;;4.35;2.25;;;;;;;14.25;58.02;100826.47;10399832;28;20414;-63
2021/09/22 18:30:13;;;;;;;4.88;2.65;;;;;;;14.13;58.15;100813.19;10399955;28;20053;-64
2021/09/22 18:35:15;;;;;;;6.05;2.55;;;;;;;14.04;58.31;100806.72;10399466;28;20053;-63
2021/09/22 18:40:17;;;;;;;6.63;2.83;;;;;;;13.94;58.71;100804.72;10399342;28;20539;-63
2021/09/22 18:45:19;;;;;;;5.38;2.65;;;;;;;13.86;59.01;100809.59;10399337;28;20515;-63
2021/09/22 18:50:22;;;;;;;5.20;2.75;;;;;;;13.76;59.30;100804.03;10398916;28;20057;-63
2021/09/22 18:55:24;;;;;;;5.07;2.85;;;;;;;13.64;59.43;100799.50;10398998;28;20651;-64
2021/09/22 19:00:26;;;;;;;5.57;2.83;;;;;;;13.58;59.66;100805.97;10398746;28;20057;-63
2021/09/22 19:05:28;;;;;;;4.43;2.65;;;;;;;13.52;59.94;100800.22;10398707;28;20061;-63
2021/09/22 19:10:30;;;;;;;6.60;3.00;;;;;;;13.43;59.97;100809.47;10431135;28;20127;-64
2021/09/22 19:15:33;;;;;;;4.93;2.80;;;;;;;13.35;60.03;100806.41;10437644;28;20055;-63
2021/09/22 19:20:34;;;;;;;6.82;3.10;;;;;;;13.28;60.03;100809.47;10439011;28;20061;-64
2021/09/22 19:25:37;;;;;;;6.97;3.10;;;;;;;13.21;60.36;100808.16;10437854;28;20068;-63
2021/09/22 19:30:39;;;;;;;4.75;2.75;;;;;;;13.10;60.36;100810.50;10419763;28;20146;-64
2021/09/22 19:35:40;;;;;;;4.57;2.70;;;;;;;13.05;60.53;100812.56;10397217;28;20049;-65
2021/09/22 19:40:43;;;;;;;7.97;2.97;;;;;;;12.96;60.69;100816.53;10397136;28;20049;-64
2021/09/22 19:45:45;;;;;;;7.75;3.30;;;;;;;12.87;61.04;100804.78;10397116;28;20313;-65
2021/09/22 19:50:47;;;;;;;5.30;3.45;;;;;;;12.67;61.50;100812.91;10396729;28;20468;-64
2021/09/22 19:55:49;;;;;;;5.15;3.00;;;;;;;12.63;61.47;100813.13;10396518;28;20065;-65
2021/09/22 20:00:51;;;;;;;8.43;2.97;;;;;;;12.58;61.39;100807.28;10396547;28;20060;-66
2021/09/22 20:05:53;;;;;;;7.35;3.17;;;;;;;12.52;61.74;100800.59;10396094;28;20065;-65
2021/09/22 20:10:55;;;;;;;6.25;3.40;;;;;;;12.48;61.49;100806.94;10395887;28;20100;-65
2021/09/22 20:15:56;;;;;;;8.70;3.97;;;;;;;12.43;61.84;100803.72;10395621;28;20084;-66
2021/09/22 20:20:58;;;;;;;7.93;3.55;;;;;;;12.44;61.81;100804.56;10395494;28;20056;-63
2021/09/22 20:26:00;;;;;;;5.13;3.17;;;;;;;12.36;62.05;100797.09;10395276;28;20513;-64
2021/09/22 20:31:02;;;;;;;6.40;3.45;;;;;;;12.23;62.47;100793.41;10394718;28;20154;-64
2021/09/22 20:36:04;;;;;;;6.40;3.90;;;;;;;12.29;62.33;100813.25;10395088;28;20341;-64
2021/09/22 20:41:08;;;;;;;8.70;3.95;;;;;;;12.13;62.32;100806.13;10394990;28;20075;-63
2021/09/22 20:46:10;;;;;;;9.02;3.63;;;;;;;12.10;62.54;100805.47;10395334;28;20054;-63
2021/09/22 20:51:14;;;;;;;6.45;3.50;;;;;;;12.07;62.36;100808.22;10394847;28;20464;-64
2021/09/22 20:56:16;;;;;;;6.25;3.38;;;;;;;11.98;62.66;100801.72;10393057;28;20049;-64
2021/09/22 21:01:18;;;;;;;6.80;4.20;;;;;;;11.86;62.58;100804.13;10394198;28;20671;-64
2021/09/22 21:06:20;;;;;;;6.63;3.78;;;;;;;11.73;62.73;100805.66;10393890;28;20124;-64
2021/09/22 21:11:22;;;;;;;4.82;3.30;;;;;;;11.70;62.90;100800.56;10393115;28;20512;-63
2021/09/22 21:16:23;;;;;;;5.97;3.72;;;;;;;11.69;62.85;100798.88;10393232;28;20493;-64
2021/09/22 21:21:26;;;;;;;8.43;4.05;;;;;;;11.65;62.77;100802.56;10393221;28;20045;-64
2021/09/22 21:26:28;;;;;;;5.72;3.80;;;;;;;11.48;63.02;100795.53;10392719;28;20461;-64
2021/09/22 21:31:30;;;;;;;8.48;4.32;;;;;;;11.32;63.26;100795.47;10391444;28;20064;-64
2021/09/22 21:36:32;;;;;;;8.18;4.25;;;;;;;11.27;63.42;100797.44;10392710;28;20056;-64
2021/09/22 21:41:34;;;;;;;7.75;4.20;;;;;;;11.32;63.56;100814.75;10392187;28;20137;-64
2021/09/22 21:46:35;;;;;;;6.68;4.20;;;;;;;11.11;63.47;100798.28;10391172;28;20116;-64
2021/09/22 21:51:37;;;;;;;7.03;3.58;;;;;;;11.11;63.56;100801.72;10393173;28;20061;-64
2021/09/22 21:56:44;;;;;;;5.55;4.07;;;;;;;11.14;63.38;100792.91;10392126;28;20070;-64
2021/09/22 22:01:46;;;;;;;7.28;4.00;;;;;;;11.11;63.38;100786.03;10392066;28;20139;-64
2021/09/22 22:06:48;;;;;;;9.73;4.38;;;;;;;11.10;63.24;100775.63;10392069;28;20164;-64
2021/09/22 22:11:50;;;;;;;6.38;3.97;;;;;;;11.06;63.28;100777.56;10391988;28;20057;-64
2021/09/22 22:16:51;;;;;;;6.85;3.75;;;;;;;11.04;63.23;100778.56;10391888;28;20065;-64
2021/09/22 22:21:53;;;;;;;8.30;4.10;;;;;;;11.00;63.17;100780.44;10392131;28;20049;-64
2021/09/22 22:26:55;;;;;;;6.80;3.92;;;;;;;10.92;63.50;100779.97;10391661;28;20097;-64
2021/09/22 22:31:57;;;;;;;5.70;3.72;;;;;;;10.86;63.32;100782.88;10391805;28;20068;-64
2021/09/22 22:36:59;;;;;;;8.95;3.85;;;;;;;10.82;63.27;100786.56;10391728;28;20061;-64
2021/09/22 22:42:01;;;;;;;8.20;4.40;;;;;;;10.79;63.40;100777.97;10391346;28;20061;-64
2021/09/22 22:47:03;;;;;;;8.65;4.35;;;;;;;10.72;62.92;100785.28;10391392;28;20053;-65
2021/09/22 22:52:05;;;;;;;7.45;4.10;;;;;;;10.59;63.37;100784.16;10391268;28;20093;-64
2021/09/22 22:57:07;;;;;;;8.82;3.58;;;;;;;10.53;63.40;100789.66;10397780;28;20049;-63
2021/09/22 23:02:09;;;;;;;7.82;3.80;;;;;;;10.54;63.48;100780.91;10398910;28;20053;-64
2021/09/22 23:07:11;;;;;;;9.88;4.78;;;;;;;10.39;63.59;100786.84;10398530;28;20072;-64
2021/09/22 23:12:13;;;;;;;8.13;4.75;;;;;;;10.21;64.13;100793.75;10421834;28;20065;-64